Time,TemperatureF,DewpointF,PressureIn,WindDirection,WindDirectionDegrees,WindSpeedMPH,WindSpeedGustMPH,Humidity,HourlyPrecipIn,Conditions,Clouds,dailyrainin,SoftwareType,DateUTC
2013-05-01 00:12:00,66.1,65.0,29.86,SSE,155,0.0,0.0,96,0.00,,,0.00,weatherlink.com 1.10,2013-05-01 05:12:00,
2013-05-01 00:27:00,66.1,65.0,29.85,SSE,155,0.0,0.0,96,0.00,,,0.00,weatherlink.com 1.10,2013-05-01 05:27:00,
2013-05-01 00:42:00,66.1,65.0,29.85,SSE,155,0.0,0.0,96,0.01,,,0.01,weatherlink.com 1.10,2013-05-01 05:42:00,
2013-05-01 00:57:00,66.2,65.0,29.85,SSE,155,0.0,0.0,96,0.01,,,0.01,weatherlink.com 1.10,2013-05-01 05:57:00,
2013-05-01 01:12:00,66.2,65.0,29.85,SSE,155,0.0,0.0,96,0.01,,,0.01,weatherlink.com 1.10,2013-05-01 06:12:00,
2013-05-01 01:27:00,66.3,65.0,29.85,SSE,155,0.0,0.0,96,0.01,,,0.01,weatherlink.com 1.10,2013-05-01 06:27:00,
2013-05-01 01:42:00,66.3,65.0,29.85,SSE,155,0.0,0.0,96,0.00,,,0.01,weatherlink.com 1.10,2013-05-01 06:42:00,
2013-05-01 01:57:00,66.6,66.0,29.85,SSE,155,0.0,0.0,96,0.00,,,0.01,weatherlink.com 1.10,2013-05-01 06:57:00,
2013-05-01 02:12:00,67.0,66.0,29.84,SSE,155,0.0,1.0,96,0.00,,,0.01,weatherlink.com 1.10,2013-05-01 07:12:00,
2013-05-01 02:27:00,67.3,66.0,29.85,SSE,155,0.0,1.0,96,0.00,,,0.01,weatherlink.com 1.10,2013-05-01 07:27:00,
2013-05-01 02:42:00,67.4,66.0,29.84,SSE,155,0.0,1.0,96,0.00,,,0.01,weatherlink.com 1.10,2013-05-01 07:42:00,
2013-05-01 02:57:00,67.3,66.0,29.84,SSE,155,0.0,0.0,96,0.00,,,0.01,weatherlink.com 1.10,2013-05-01 07:57:00,
2013-05-01 03:12:00,67.3,66.0,29.84,SSE,155,0.0,1.0,96,0.00,,,0.01,weatherlink.com 1.10,2013-05-01 08:12:00,
2013-05-01 03:27:00,67.2,66.0,29.84,ESE,117,0.0,2.0,96,0.00,,,0.01,weatherlink.com 1.10,2013-05-01 08:27:00,
2013-05-01 03:43:00,67.1,66.0,29.84,ESE,117,0.0,1.0,96,0.00,,,0.01,weatherlink.com 1.10,2013-05-01 08:43:00,
2013-05-01 03:58:00,67.2,66.0,29.84,ESE,121,0.0,2.0,96,0.00,,,0.01,weatherlink.com 1.10,2013-05-01 08:58:00,
2013-05-01 04:13:00,67.1,66.0,29.84,ESE,121,0.0,0.0,96,0.00,,,0.01,weatherlink.com 1.10,2013-05-01 09:13:00,
2013-05-01 04:28:00,67.0,66.0,29.85,SE,127,0.0,2.0,96,0.00,,,0.01,weatherlink.com 1.10,2013-05-01 09:28:00,
2013-05-01 04:43:00,66.9,66.0,29.85,SE,127,0.0,0.0,96,0.00,,,0.01,weatherlink.com 1.10,2013-05-01 09:43:00,
2013-05-01 04:58:00,66.9,66.0,29.85,SE,127,0.0,0.0,96,0.00,,,0.01,weatherlink.com 1.10,2013-05-01 09:58:00,
2013-05-01 05:13:00,66.9,66.0,29.85,SE,127,0.0,0.0,96,0.00,,,0.01,weatherlink.com 1.10,2013-05-01 10:13:00,
2013-05-01 05:28:00,66.7,66.0,29.85,SE,127,0.0,0.0,96,0.00,,,0.01,weatherlink.com 1.10,2013-05-01 10:28:00,
2013-05-01 05:43:00,66.5,65.0,29.86,SE,127,0.0,0.0,96,0.00,,,0.01,weatherlink.com 1.10,2013-05-01 10:43:00,
2013-05-01 05:58:00,66.4,65.0,29.86,SE,127,0.0,0.0,96,0.00,,,0.01,weatherlink.com 1.10,2013-05-01 10:58:00,
2013-05-01 06:13:00,66.1,65.0,29.86,SE,127,0.0,0.0,96,0.00,,,0.01,weatherlink.com 1.10,2013-05-01 11:13:00,
2013-05-01 06:28:00,65.8,65.0,29.86,SE,127,0.0,0.0,96,0.00,,,0.01,weatherlink.com 1.10,2013-05-01 11:28:00,
2013-05-01 06:43:00,65.5,64.0,29.86,SE,127,0.0,0.0,96,0.00,,,0.01,weatherlink.com 1.10,2013-05-01 11:43:00,
2013-05-01 06:58:00,65.5,64.0,29.87,SE,127,0.0,0.0,96,0.00,,,0.01,weatherlink.com 1.10,2013-05-01 11:58:00,
2013-05-01 07:13:00,65.4,64.0,29.87,SE,127,0.0,0.0,96,0.00,,,0.01,weatherlink.com 1.10,2013-05-01 12:13:00,
2013-05-01 07:28:00,65.6,65.0,29.87,SE,127,0.0,0.0,96,0.00,,,0.01,weatherlink.com 1.10,2013-05-01 12:28:00,
2013-05-01 07:43:00,65.9,65.0,29.88,SE,127,0.0,0.0,96,0.00,,,0.01,weatherlink.com 1.10,2013-05-01 12:43:00,
2013-05-01 07:58:00,66.6,66.0,29.87,NE,46,0.0,1.0,96,0.00,,,0.01,weatherlink.com 1.10,2013-05-01 12:58:00,
2013-05-01 08:13:00,67.3,66.0,29.87,East,85,0.0,2.0,96,0.00,,,0.01,weatherlink.com 1.10,2013-05-01 13:13:00,
2013-05-01 08:28:00,67.9,67.0,29.88,NE,45,0.0,1.0,96,0.00,,,0.01,weatherlink.com 1.10,2013-05-01 13:28:00,
2013-05-01 08:43:00,68.4,67.0,29.88,ESE,115,0.0,2.0,96,0.00,,,0.01,weatherlink.com 1.10,2013-05-01 13:43:00,
2013-05-01 08:58:00,68.3,67.0,29.89,East,85,0.0,2.0,96,0.00,,,0.01,weatherlink.com 1.10,2013-05-01 13:58:00,
2013-05-01 09:13:00,68.7,68.0,29.90,SE,142,0.0,4.0,96,0.00,,,0.01,weatherlink.com 1.10,2013-05-01 14:13:00,
2013-05-01 09:28:00,69.8,69.0,29.90,NW,325,0.0,3.0,96,0.00,,,0.01,weatherlink.com 1.10,2013-05-01 14:28:00,
2013-05-01 09:43:00,70.2,68.0,29.90,SE,128,2.0,3.0,91,0.00,,,0.01,weatherlink.com 1.10,2013-05-01 14:43:00,
2013-05-01 09:58:00,71.9,68.0,29.90,ENE,76,0.0,3.0,86,0.00,,,0.01,weatherlink.com 1.10,2013-05-01 14:58:00,
2013-05-01 10:13:00,72.3,68.0,29.91,WNW,284,1.0,3.0,86,0.00,,,0.01,weatherlink.com 1.10,2013-05-01 15:13:00,
2013-05-01 10:28:00,71.5,67.0,29.91,South,176,2.0,5.0,84,0.00,,,0.01,weatherlink.com 1.10,2013-05-01 15:28:00,
2013-05-01 10:43:00,73.5,69.0,29.91,South,175,0.0,3.0,85,0.00,,,0.01,weatherlink.com 1.10,2013-05-01 15:43:00,
2013-05-01 10:58:00,74.2,70.0,29.91,South,180,0.0,3.0,86,0.00,,,0.01,weatherlink.com 1.10,2013-05-01 15:58:00,
2013-05-01 11:13:00,74.2,68.0,29.91,South,180,0.0,1.0,81,0.00,,,0.01,weatherlink.com 1.10,2013-05-01 16:13:00,
2013-05-01 11:28:00,75.0,67.0,29.91,South,180,0.0,2.0,77,0.00,,,0.01,weatherlink.com 1.10,2013-05-01 16:28:00,
2013-05-01 11:43:00,73.5,67.0,29.91,South,180,0.0,1.0,81,0.00,,,0.01,weatherlink.com 1.10,2013-05-01 16:43:00,
2013-05-01 11:58:00,72.8,69.0,29.91,South,180,0.0,0.0,87,0.00,,,0.01,weatherlink.com 1.10,2013-05-01 16:58:00,
2013-05-01 12:13:00,74.1,67.0,29.91,South,180,0.0,1.0,78,0.00,,,0.01,weatherlink.com 1.10,2013-05-01 17:13:00,
2013-05-01 12:28:00,74.1,66.0,29.91,South,180,0.0,1.0,75,0.00,,,0.01,weatherlink.com 1.10,2013-05-01 17:28:00,
2013-05-01 12:43:00,74.4,68.0,29.90,South,180,0.0,1.0,81,0.00,,,0.01,weatherlink.com 1.10,2013-05-01 17:43:00,
2013-05-01 12:58:00,74.7,69.0,29.90,South,180,0.0,1.0,82,0.00,,,0.01,weatherlink.com 1.10,2013-05-01 17:58:00,
2013-05-01 13:13:00,76.7,67.0,29.89,ESE,120,0.0,3.0,72,0.00,,,0.01,weatherlink.com 1.10,2013-05-01 18:13:00,
2013-05-01 13:28:00,79.6,69.0,29.89,SE,142,0.0,3.0,71,0.00,,,0.01,weatherlink.com 1.10,2013-05-01 18:28:00,
2013-05-01 13:43:00,81.3,68.0,29.89,SE,132,0.0,2.0,64,0.00,,,0.01,weatherlink.com 1.10,2013-05-01 18:43:00,
2013-05-01 13:58:00,79.1,66.0,29.88,SE,133,0.0,2.0,64,0.00,,,0.01,weatherlink.com 1.10,2013-05-01 18:58:00,
2013-05-01 14:14:00,77.6,67.0,29.89,NW,322,2.0,5.0,70,0.00,,,0.01,weatherlink.com 1.10,2013-05-01 19:14:00,
2013-05-01 14:28:00,76.6,69.0,29.88,NW,322,0.0,1.0,76,0.00,,,0.01,weatherlink.com 1.10,2013-05-01 19:28:00,
2013-05-01 14:43:00,80.1,66.0,29.88,SSE,157,0.0,3.0,62,0.00,,,0.01,weatherlink.com 1.10,2013-05-01 19:43:00,
2013-05-01 14:58:00,81.2,66.0,29.88,SSE,163,0.0,3.0,61,0.00,,,0.01,weatherlink.com 1.10,2013-05-01 19:58:00,
2013-05-01 15:14:00,81.5,67.0,29.87,NW,323,2.0,4.0,62,0.00,,,0.01,weatherlink.com 1.10,2013-05-01 20:14:00,
2013-05-01 15:28:00,82.7,68.0,29.86,SSW,213,0.0,3.0,61,0.00,,,0.01,weatherlink.com 1.10,2013-05-01 20:28:00,
2013-05-01 15:44:00,82.8,66.0,29.86,North,355,0.0,3.0,58,0.00,,,0.01,weatherlink.com 1.10,2013-05-01 20:44:00,
2013-05-01 15:59:00,82.6,66.0,29.86,North,355,0.0,2.0,58,0.00,,,0.01,weatherlink.com 1.10,2013-05-01 20:59:00,
2013-05-01 16:14:00,82.2,66.0,29.86,South,169,1.0,2.0,58,0.00,,,0.01,weatherlink.com 1.10,2013-05-01 21:14:00,
2013-05-01 16:29:00,82.5,66.0,29.85,NNE,33,0.0,4.0,57,0.00,,,0.01,weatherlink.com 1.10,2013-05-01 21:29:00,
2013-05-01 16:44:00,81.5,65.0,29.85,NW,304,0.0,3.0,58,0.00,,,0.01,weatherlink.com 1.10,2013-05-01 21:44:00,
2013-05-01 16:59:00,81.0,67.0,29.84,NNW,339,2.0,3.0,62,0.00,,,0.01,weatherlink.com 1.10,2013-05-01 21:59:00,
2013-05-01 17:14:00,80.6,65.0,29.84,NW,310,0.0,4.0,60,0.00,,,0.01,weatherlink.com 1.10,2013-05-01 22:14:00,
2013-05-01 17:29:00,80.8,65.0,29.84,NW,310,0.0,2.0,59,0.00,,,0.01,weatherlink.com 1.10,2013-05-01 22:29:00,
2013-05-01 17:44:00,80.3,65.0,29.85,NW,321,0.0,3.0,60,0.00,,,0.01,weatherlink.com 1.10,2013-05-01 22:44:00,
2013-05-01 17:59:00,79.6,68.0,29.86,NNW,330,2.0,3.0,68,0.00,,,0.01,weatherlink.com 1.10,2013-05-01 22:59:00,
2013-05-01 18:14:00,78.9,70.0,29.86,NNE,28,2.0,3.0,73,0.00,,,0.01,weatherlink.com 1.10,2013-05-01 23:14:00,
2013-05-01 18:29:00,78.2,69.0,29.86,NNE,28,0.0,2.0,74,0.00,,,0.01,weatherlink.com 1.10,2013-05-01 23:29:00,
2013-05-01 18:44:00,77.1,68.0,29.86,NNW,340,0.0,6.0,73,0.00,,,0.01,weatherlink.com 1.10,2013-05-01 23:44:00,
2013-05-01 18:59:00,75.5,67.0,29.87,North,355,0.0,3.0,74,0.00,,,0.01,weatherlink.com 1.10,2013-05-01 23:59:00,
2013-05-01 19:14:00,74.5,66.0,29.87,North,349,0.0,4.0,74,0.00,,,0.01,weatherlink.com 1.10,2013-05-02 00:14:00,
2013-05-01 19:29:00,73.6,66.0,29.88,North,349,0.0,1.0,77,0.00,,,0.01,weatherlink.com 1.10,2013-05-02 00:29:00,
2013-05-01 19:44:00,73.0,67.0,29.88,North,349,0.0,1.0,80,0.00,,,0.01,weatherlink.com 1.10,2013-05-02 00:44:00,
2013-05-01 19:59:00,72.0,66.0,29.89,North,349,0.0,0.0,82,0.00,,,0.01,weatherlink.com 1.10,2013-05-02 00:59:00,
2013-05-01 20:14:00,71.3,66.0,29.89,North,349,0.0,0.0,84,0.00,,,0.01,weatherlink.com 1.10,2013-05-02 01:14:00,
2013-05-01 20:29:00,70.5,66.0,29.89,North,349,0.0,0.0,85,0.00,,,0.01,weatherlink.com 1.10,2013-05-02 01:29:00,
2013-05-01 20:44:00,69.9,66.0,29.89,North,349,0.0,0.0,86,0.00,,,0.01,weatherlink.com 1.10,2013-05-02 01:44:00,
2013-05-01 20:59:00,69.6,66.0,29.89,North,349,0.0,0.0,87,0.00,,,0.01,weatherlink.com 1.10,2013-05-02 01:59:00,
2013-05-01 21:14:00,69.1,66.0,29.90,North,349,0.0,1.0,88,0.00,,,0.01,weatherlink.com 1.10,2013-05-02 02:14:00,
2013-05-01 21:29:00,68.7,65.0,29.91,North,349,0.0,1.0,88,0.00,,,0.01,weatherlink.com 1.10,2013-05-02 02:29:00,
2013-05-01 21:44:00,68.6,65.0,29.91,North,349,0.0,1.0,89,0.00,,,0.01,weatherlink.com 1.10,2013-05-02 02:44:00,
2013-05-01 21:59:00,68.2,65.0,29.92,North,349,0.0,1.0,90,0.00,,,0.01,weatherlink.com 1.10,2013-05-02 02:59:00,
2013-05-01 22:14:00,67.9,65.0,29.93,North,349,0.0,0.0,90,0.00,,,0.01,weatherlink.com 1.10,2013-05-02 03:14:00,
2013-05-01 22:29:00,67.4,65.0,29.93,North,349,0.0,1.0,91,0.00,,,0.01,weatherlink.com 1.10,2013-05-02 03:29:00,
2013-05-01 22:44:00,67.1,65.0,29.93,North,349,0.0,2.0,92,0.00,,,0.01,weatherlink.com 1.10,2013-05-02 03:44:00,
2013-05-01 22:59:00,66.8,65.0,29.92,North,349,0.0,1.0,92,0.00,,,0.01,weatherlink.com 1.10,2013-05-02 03:59:00,
2013-05-01 23:14:00,66.5,64.0,29.92,North,349,0.0,2.0,92,0.00,,,0.01,weatherlink.com 1.10,2013-05-02 04:14:00,
2013-05-01 23:29:00,66.2,64.0,29.93,North,349,0.0,2.0,92,0.00,,,0.01,weatherlink.com 1.10,2013-05-02 04:29:00,
2013-05-01 23:44:00,65.9,64.0,29.92,North,349,0.0,1.0,92,0.00,,,0.01,weatherlink.com 1.10,2013-05-02 04:44:00,
2013-05-01 23:59:00,65.7,63.0,29.93,North,349,0.0,0.0,92,0.00,,,0.01,weatherlink.com 1.10,2013-05-02 04:59:00,